Aérodrome :
LOGIN :

S'inscrire | Disclaimer

   EN    FR    IT 

 










Légende :    VFR   VFR Marginal   IFR   IFR Intensif   IFR Très Intensif
Visi : 
Plafond : 
>= 8 km
>= 3000ft
5 à 8 km
1000 à 3000 ft
1500m à 5 km
500 à 1000 ft
800 à 1500m
200 à 500 ft
< 800m
< 200 ft
Symboles :   Orages  Brouillard  Fortes neiges  Fortes précipitations  Vent > 20 kt
SIGMETs :   Divers  Orages  Givrage  Turbulence  Onde Orograph.  Cendres Volcan.







- Altitude de l'aérodrome : 13 ft
- Code IATA : OST


EBOS - Oostend bruges Int.

DERNIER METAR :
  • 242320Z 12002KT 8000 NSC 09/07 Q1017 TEMPO 4000 BR

METARs EXPIRÉS :
  • 242250Z 12003KT 8000 NSC 10/07 Q1017 NOSIG
  • 242220Z 13003KT 9000 NSC 10/08 Q1017 NOSIG
  • 242150Z 11004KT CAVOK 10/08 Q1018 NOSIG
  • 242120Z 08006KT CAVOK 11/08 Q1018 NOSIG
  • 242050Z 08005KT CAVOK 11/09 Q1018 NOSIG

TAF TAF EBOS
Valide du 25 à 00h jusqu'au 26 à 06h UTC


242300Z 2500/2606 16004KT 8000 NSC
PROB30
TEMPO 2502/2505 3500 BR
PROB30
TEMPO 2505/2511 4500 SHRA
BECMG 2508/2510 30010KT
BECMG 2518/2520 22007KT
Pas de NOTAMs connus pour ce terrain.



MET'MAP, la Météo Aéronautique d'un coup d'oeil ! - Copyright ORBIFLY Décembre 2007 - Disclaimer

ORBIFLY MET'MAP TEAM :

Programmation & Développement : Alexandra Zaïnal
Conception & Développement : Baudouin d'Aumeries
Co-Programmation & Développement : Marc-Olivier Méhu
Soutien technique & logistique : Manuel Goepfert

Contact : metmap@orbifly.com




SOURCES & CREDITS :

   NOAA